createdAt,value
2018-10-16T00:00:15.724Z,4.87
2018-10-16T00:02:45.752Z,5.50
2018-10-16T00:05:15.635Z,5.20
2018-10-16T00:07:45.128Z,5.17
2018-10-16T00:10:18.592Z,5.12
2018-10-16T00:12:48.269Z,5.78
2018-10-16T00:15:17.658Z,5.37
2018-10-16T00:17:46.965Z,5.10
2018-10-16T00:20:16.408Z,5.40
2018-10-16T00:22:45.869Z,4.80
2018-10-16T00:25:17.353Z,5.30
2018-10-16T00:27:46.814Z,5.35
2018-10-16T00:30:16.219Z,5.72
2018-10-16T00:32:45.770Z,5.28
2018-10-16T00:35:15.217Z,5.10
2018-10-16T00:37:44.568Z,5.15
2018-10-16T00:40:13.972Z,5.33
2018-10-16T00:42:44.247Z,5.30
2018-10-16T00:45:13.731Z,5.60
2018-10-16T00:47:43.043Z,5.20
2018-10-16T00:50:12.456Z,5.35
2018-10-16T00:52:41.800Z,5.42
2018-10-16T00:55:11.314Z,5.20
2018-10-16T00:57:41.265Z,5.17
2018-10-16T01:00:12.268Z,5.53
2018-10-16T01:02:42.713Z,5.97
2018-10-16T01:05:13.019Z,5.17
2018-10-16T01:07:43.067Z,5.40
2018-10-16T01:10:13.164Z,5.30
2018-10-16T01:12:42.693Z,5.42
2018-10-16T01:15:12.806Z,5.75
2018-10-16T01:17:42.713Z,5.72
2018-10-16T01:20:14.360Z,5.72
2018-10-16T01:22:44.023Z,5.50
2018-10-16T01:25:13.812Z,5.62
2018-10-16T01:27:43.169Z,4.62
2018-10-16T01:30:12.708Z,5.37
2018-10-16T01:32:42.634Z,5.45
2018-10-16T01:35:12.660Z,5.67
2018-10-16T01:37:42.491Z,5.60
2018-10-16T01:40:13.675Z,5.45
2018-10-16T01:42:43.064Z,5.17
2018-10-16T01:45:12.623Z,5.33
2018-10-16T01:47:42.062Z,5.80
2018-10-16T01:50:11.537Z,5.62
2018-10-16T01:52:41.058Z,5.75
2018-10-16T01:55:11.037Z,5.92
2018-10-16T01:57:40.603Z,5.65
2018-10-16T02:00:11.260Z,5.75
2018-10-16T02:02:41.009Z,5.70
2018-10-16T02:05:10.408Z,5.70
2018-10-16T02:07:40.005Z,5.05
2018-10-16T02:10:09.461Z,5.30
2018-10-16T02:12:38.950Z,5.08
2018-10-16T02:15:09.214Z,5.70
2018-10-16T02:17:39.655Z,5.03
2018-10-16T02:20:09.968Z,5.25
2018-10-16T02:22:40.113Z,5.05
2018-10-16T02:25:10.561Z,5.17
2018-10-16T02:27:40.806Z,5.87
2018-10-16T02:30:10.346Z,5.67
2018-10-16T02:32:39.769Z,5.95
2018-10-16T02:35:10.409Z,5.60
2018-10-16T02:37:40.717Z,5.33
2018-10-16T02:40:10.986Z,5.50
2018-10-16T02:42:40.999Z,5.25
2018-10-16T02:45:11.519Z,4.80
2018-10-16T02:47:41.243Z,5.53
2018-10-16T02:50:11.552Z,6.22
2018-10-16T02:52:41.051Z,5.67
2018-10-16T02:55:11.107Z,5.60
2018-10-16T02:57:40.570Z,4.97
2018-10-16T03:00:10.311Z,5.67
2018-10-16T03:02:39.811Z,5.40
2018-10-16T03:05:09.296Z,5.20
2018-10-16T03:07:38.754Z,4.97
2018-10-16T03:10:08.145Z,5.47
2018-10-16T03:12:37.515Z,5.42
2018-10-16T03:15:10.887Z,5.50
2018-10-16T03:17:40.553Z,5.08
2018-10-16T03:20:10.992Z,5.62
2018-10-16T03:22:41.212Z,4.92
2018-10-16T03:25:12.556Z,5.35
2018-10-16T03:27:42.285Z,5.70
2018-10-16T03:30:13.058Z,5.47
2018-10-16T03:32:42.642Z,5.22
2018-10-16T03:35:12.644Z,5.53
2018-10-16T03:37:42.562Z,5.22
2018-10-16T03:40:12.417Z,5.40
2018-10-16T03:42:42.666Z,5.58
2018-10-16T03:45:13.236Z,5.22
2018-10-16T03:47:42.691Z,5.40
2018-10-16T03:50:12.108Z,5.10
2018-10-16T03:52:41.590Z,5.08
2018-10-16T03:55:11.099Z,5.50
2018-10-16T03:57:40.484Z,5.72
2018-10-16T04:00:11.396Z,5.55
2018-10-16T04:02:40.715Z,4.83
2018-10-16T04:05:10.141Z,5.60
2018-10-16T04:07:40.030Z,5.70
2018-10-16T04:10:09.901Z,5.33
2018-10-16T04:12:39.773Z,5.00
2018-10-16T04:15:10.976Z,5.53
2018-10-16T04:17:41.165Z,5.47
2018-10-16T04:20:10.713Z,5.28
2018-10-16T04:22:40.190Z,5.22
2018-10-16T04:25:09.868Z,5.42
2018-10-16T04:27:39.203Z,5.25
2018-10-16T04:30:09.113Z,5.37
2018-10-16T04:32:38.812Z,5.35
2018-10-16T04:35:14.993Z,5.30
2018-10-16T04:37:45.198Z,5.15
2018-10-16T04:40:14.917Z,5.60
2018-10-16T04:42:44.419Z,5.30
2018-10-16T04:45:13.943Z,5.08
2018-10-16T04:47:43.309Z,4.97
2018-10-16T04:50:12.761Z,5.55
2018-10-16T04:52:42.186Z,5.30
2018-10-16T04:55:11.732Z,5.25
2018-10-16T04:57:41.082Z,5.37
2018-10-16T05:00:10.686Z,5.72
2018-10-16T05:02:41.369Z,5.22
2018-10-16T05:05:21.649Z,4.90
2018-10-16T05:07:51.593Z,4.85
2018-10-16T05:10:21.524Z,4.62
2018-10-16T05:12:51.222Z,5.60
2018-10-16T05:15:30.071Z,5.20
2018-10-16T05:17:59.546Z,4.72
2018-10-16T05:20:29.176Z,4.92
2018-10-16T05:22:59.640Z,5.67
2018-10-16T05:25:29.916Z,5.65
2018-10-16T05:27:59.446Z,5.00
2018-10-16T05:30:29.011Z,5.08
2018-10-16T05:32:58.438Z,5.33
2018-10-16T05:35:28.066Z,5.37
2018-10-16T05:37:57.877Z,5.17
2018-10-16T05:40:27.238Z,5.10
2018-10-16T05:42:56.761Z,5.70
2018-10-16T05:45:27.312Z,5.45
2018-10-16T05:47:56.780Z,5.03
2018-10-16T05:50:26.134Z,5.28
2018-10-16T05:52:55.606Z,5.00
2018-10-16T05:55:24.949Z,4.85
2018-10-16T05:57:54.321Z,5.00
2018-10-16T06:00:41.609Z,5.28
2018-10-16T06:03:11.301Z,5.00
2018-10-16T06:05:40.687Z,5.85
2018-10-16T06:08:10.602Z,5.37
2018-10-16T06:10:40.022Z,5.40
2018-10-16T06:13:09.356Z,5.75
2018-10-16T06:15:38.804Z,4.58
2018-10-16T06:18:08.222Z,5.03
2018-10-16T06:20:37.840Z,5.62
2018-10-16T06:23:07.462Z,5.00
2018-10-16T06:25:36.856Z,5.47
2018-10-16T06:28:21.737Z,4.95
2018-10-16T06:30:51.248Z,5.72
2018-10-16T06:33:23.188Z,5.08
2018-10-16T06:35:52.714Z,6.30
2018-10-16T06:38:22.098Z,4.83
2018-10-16T06:40:51.571Z,5.60
2018-10-16T06:43:21.547Z,5.95
2018-10-16T06:45:51.111Z,5.30
2018-10-16T06:48:27.010Z,5.15
2018-10-16T06:50:56.102Z,5.17
2018-10-16T06:53:25.577Z,5.37
2018-10-16T06:55:55.046Z,5.10
2018-10-16T06:58:24.516Z,5.30
2018-10-16T07:00:53.905Z,5.40
2018-10-16T07:03:23.299Z,5.92
2018-10-16T07:05:52.846Z,5.72
2018-10-16T07:08:22.260Z,5.45
2018-10-16T07:10:51.677Z,5.22
2018-10-16T07:13:21.020Z,5.75
2018-10-16T07:15:50.379Z,5.22
2018-10-16T07:18:19.812Z,5.92
2018-10-16T07:20:49.245Z,5.70
2018-10-16T07:23:18.701Z,5.58
2018-10-16T07:25:48.735Z,6.75
2018-10-16T07:28:18.352Z,6.00
2018-10-16T07:30:47.824Z,5.45
2018-10-16T07:33:17.399Z,5.67
2018-10-16T07:35:47.939Z,5.28
2018-10-16T07:38:17.628Z,6.20
2018-10-16T07:40:46.992Z,6.12
2018-10-16T07:43:16.504Z,5.78
2018-10-16T07:45:46.115Z,6.30
2018-10-16T07:48:15.870Z,6.10
2018-10-16T07:50:45.333Z,6.00
2018-10-16T07:53:14.682Z,6.55
2018-10-16T07:55:44.152Z,5.78
2018-10-16T07:58:13.576Z,6.15
2018-10-16T08:00:43.009Z,5.67
2018-10-16T08:03:12.472Z,6.22
2018-10-16T08:05:41.900Z,5.92
2018-10-16T08:08:11.244Z,6.47
2018-10-16T08:10:41.301Z,5.58
2018-10-16T08:13:10.653Z,6.37
2018-10-16T08:15:40.017Z,6.35
2018-10-16T08:18:09.339Z,5.85
2018-10-16T08:20:38.846Z,6.12
2018-10-16T08:23:08.210Z,5.53
2018-10-16T08:25:38.383Z,6.25
2018-10-16T08:28:07.831Z,5.70
2018-10-16T08:30:37.400Z,6.28
2018-10-16T08:33:07.185Z,6.12
2018-10-16T08:35:36.613Z,5.53
2018-10-16T08:40:14.585Z,6.28
2018-10-16T08:43:20.076Z,5.47
2018-10-16T08:46:06.432Z,5.75
2018-10-16T08:48:52.726Z,5.45
2018-10-16T08:51:36.496Z,5.85
2018-10-16T08:54:06.346Z,5.65
2018-10-16T08:56:36.333Z,5.50
2018-10-16T08:59:06.133Z,4.83
2018-10-16T09:01:35.581Z,5.28
2018-10-16T09:04:05.223Z,4.60
2018-10-16T09:06:34.828Z,4.78
2018-10-16T09:09:06.640Z,4.35
2018-10-16T09:11:36.002Z,4.85
2018-10-16T09:14:05.692Z,4.67
2018-10-16T09:16:35.164Z,4.65
2018-10-16T09:19:04.677Z,4.47
2018-10-16T09:21:34.173Z,4.80
2018-10-16T09:24:03.702Z,4.60
2018-10-16T09:26:33.742Z,4.83
2018-10-16T09:29:03.119Z,4.40
2018-10-16T09:31:32.633Z,4.78
2018-10-16T09:34:02.016Z,4.62
2018-10-16T09:36:31.469Z,4.50
2018-10-16T09:39:00.883Z,4.80
2018-10-16T09:41:30.237Z,5.08
2018-10-16T09:43:59.603Z,4.80
2018-10-16T09:46:28.964Z,5.03
2018-10-16T09:48:58.389Z,5.05
2018-10-16T09:51:27.900Z,4.25
2018-10-16T09:53:57.348Z,4.70
2018-10-16T09:56:26.806Z,5.20
2018-10-16T09:58:57.190Z,4.83
2018-10-16T10:01:47.805Z,5.15
2018-10-16T10:04:17.194Z,4.90
2018-10-16T10:06:46.631Z,4.55
2018-10-16T10:09:15.966Z,5.22
2018-10-16T10:11:45.341Z,5.12
2018-10-16T10:14:14.767Z,5.05
2018-10-16T10:16:44.207Z,4.50
2018-10-16T10:19:13.560Z,4.85
2018-10-16T10:21:43.101Z,4.87
2018-10-16T10:24:12.490Z,4.95
2018-10-16T10:26:41.921Z,4.90
2018-10-16T10:29:11.289Z,4.75
2018-10-16T10:31:40.721Z,4.92
2018-10-16T10:34:10.061Z,5.35
2018-10-16T10:36:39.480Z,5.00
2018-10-16T10:39:11.847Z,5.28
2018-10-16T10:41:41.818Z,4.85
2018-10-16T10:44:11.409Z,4.75
2018-10-16T10:46:40.892Z,5.17
2018-10-16T10:49:10.313Z,5.37
2018-10-16T10:51:40.074Z,5.28
2018-10-16T10:54:09.318Z,5.15
2018-10-16T10:56:38.902Z,5.00
2018-10-16T10:59:08.490Z,4.83
2018-10-16T11:01:37.986Z,5.50
2018-10-16T11:04:07.706Z,5.00
2018-10-16T11:06:37.111Z,5.40
2018-10-16T11:09:10.528Z,5.53
2018-10-16T11:11:39.930Z,5.33
2018-10-16T11:14:09.414Z,6.12
2018-10-16T11:16:38.830Z,5.78
2018-10-16T11:19:08.584Z,5.47
2018-10-16T11:21:38.022Z,5.40
2018-10-16T11:24:07.964Z,5.30
2018-10-16T11:26:37.471Z,5.03
2018-10-16T11:29:07.374Z,6.12
2018-10-16T11:31:37.045Z,5.87
2018-10-16T11:34:07.050Z,5.12
2018-10-16T11:36:36.409Z,5.67
2018-10-16T11:39:10.086Z,5.72
2018-10-16T11:41:39.845Z,4.97
2018-10-16T11:44:11.262Z,5.58
2018-10-16T11:46:41.218Z,5.05
2018-10-16T11:49:10.621Z,5.65
2018-10-16T11:51:40.133Z,5.70
2018-10-16T11:54:09.861Z,5.05
2018-10-16T11:56:39.679Z,5.50
2018-10-16T12:01:49.668Z,4.97
2018-10-16T12:04:19.041Z,5.00
2018-10-16T12:06:48.460Z,4.08
2018-10-16T12:09:17.873Z,4.45
2018-10-16T12:11:50.695Z,4.78
2018-10-16T12:14:20.944Z,4.33
2018-10-16T12:16:55.420Z,5.45
2018-10-16T12:19:33.698Z,4.53
2018-10-16T12:22:03.086Z,5.12
2018-10-16T12:24:32.613Z,5.00
2018-10-16T12:27:02.165Z,4.87
2018-10-16T12:29:31.512Z,4.70
2018-10-16T12:32:01.597Z,4.30
2018-10-16T12:34:31.094Z,4.80
2018-10-16T12:37:00.687Z,4.58
2018-10-16T12:39:30.215Z,4.87
2018-10-16T12:42:00.168Z,4.67
2018-10-16T12:44:29.545Z,5.25
2018-10-16T12:46:58.995Z,5.28
2018-10-16T12:49:28.453Z,5.25
2018-10-16T12:51:58.369Z,5.12
2018-10-16T12:54:27.814Z,4.67
2018-10-16T12:56:57.437Z,4.60
2018-10-16T12:59:26.898Z,5.05
2018-10-16T13:01:56.428Z,5.00
2018-10-16T13:04:25.716Z,4.65
2018-10-16T13:06:55.341Z,4.83
2018-10-16T13:09:24.704Z,4.92
2018-10-16T13:11:54.224Z,4.62
2018-10-16T13:14:23.585Z,4.85
2018-10-16T13:16:54.105Z,4.42
2018-10-16T13:19:23.413Z,4.30
2018-10-16T13:21:52.819Z,4.95
2018-10-16T13:24:22.213Z,5.37
2018-10-16T13:26:51.772Z,5.22
2018-10-16T13:29:21.352Z,5.10
2018-10-16T13:31:50.767Z,5.37
2018-10-16T13:34:20.304Z,5.45
2018-10-16T13:36:50.292Z,5.85
2018-10-16T13:39:19.706Z,5.80
2018-10-16T13:41:49.203Z,5.25
2018-10-16T13:44:18.771Z,5.55
2018-10-16T13:46:48.113Z,5.35
2018-10-16T13:49:17.539Z,5.45
2018-10-16T13:51:47.062Z,6.15
2018-10-16T13:54:16.516Z,5.45
2018-10-16T13:56:45.980Z,5.62
2018-10-16T13:59:15.604Z,6.37
2018-10-16T14:01:45.019Z,5.92
2018-10-16T14:04:14.685Z,5.65
2018-10-16T14:06:44.058Z,5.62
2018-10-16T14:09:13.540Z,5.58
2018-10-16T14:11:43.047Z,5.92
2018-10-16T14:14:12.522Z,6.03
2018-10-16T14:16:41.963Z,6.10
2018-10-16T14:19:11.491Z,6.30
2018-10-16T14:21:41.124Z,6.53
2018-10-16T14:24:10.608Z,6.47
2018-10-16T14:26:40.062Z,6.42
2018-10-16T14:29:09.401Z,6.62
2018-10-16T14:31:38.895Z,6.37
2018-10-16T14:34:08.328Z,6.17
2018-10-16T14:36:37.633Z,6.65
2018-10-16T14:39:10.910Z,6.05
2018-10-16T14:41:40.806Z,6.45
2018-10-16T14:44:10.660Z,6.05
2018-10-16T14:46:41.192Z,6.15
2018-10-16T14:49:10.638Z,5.97
2018-10-16T14:51:39.984Z,6.45
2018-10-16T14:54:09.385Z,6.47
2018-10-16T14:56:38.910Z,6.40
2018-10-16T14:59:08.393Z,6.70
2018-10-16T15:01:37.811Z,6.28
2018-10-16T15:04:07.531Z,7.05
2018-10-16T15:06:36.898Z,6.65
2018-10-16T15:09:09.271Z,6.42
2018-10-16T15:11:38.744Z,6.90
2018-10-16T15:14:08.314Z,5.85
2018-10-16T15:16:38.352Z,6.80
2018-10-16T15:19:09.006Z,5.94
2018-10-16T15:21:38.610Z,6.10
2018-10-16T15:24:08.820Z,6.22
2018-10-16T15:26:39.469Z,5.78
2018-10-16T15:29:08.902Z,6.42
2018-10-16T15:31:38.274Z,6.92
2018-10-16T15:34:07.792Z,6.65
2018-10-16T15:36:37.455Z,6.55
2018-10-16T15:39:10.803Z,6.50
2018-10-16T15:41:40.525Z,6.53
2018-10-16T15:44:10.899Z,5.87
2018-10-16T15:46:40.972Z,6.60
2018-10-16T15:49:10.400Z,6.20
2018-10-16T15:51:40.255Z,6.17
2018-10-16T15:54:09.815Z,6.78
2018-10-16T15:56:39.291Z,6.45
2018-10-16T15:59:08.880Z,6.78
2018-10-16T16:01:38.424Z,6.37
2018-10-16T16:04:07.834Z,6.58
2018-10-16T16:06:37.278Z,7.00
2018-10-16T16:09:08.160Z,6.47
2018-10-16T16:11:37.705Z,7.17
2018-10-16T16:14:07.482Z,6.62
2018-10-16T16:16:38.181Z,6.85
2018-10-16T16:19:07.696Z,6.90
2018-10-16T16:21:37.111Z,7.15
2018-10-16T16:24:06.539Z,6.67
2018-10-16T16:26:35.954Z,6.50
2018-10-16T16:29:06.148Z,6.72
2018-10-16T16:31:35.839Z,7.22
2018-10-16T16:34:06.284Z,7.05
2018-10-16T16:36:35.689Z,5.97
2018-10-16T16:39:08.718Z,6.42
2018-10-16T16:41:38.368Z,6.80
2018-10-16T16:44:08.015Z,6.80
2018-10-16T16:46:37.644Z,6.72
2018-10-16T16:49:07.093Z,6.35
2018-10-16T16:51:36.796Z,6.47
2018-10-16T16:54:06.658Z,6.75
2018-10-16T16:56:36.214Z,7.08
2018-10-16T16:59:06.032Z,7.00
2018-10-16T17:01:35.455Z,6.87
2018-10-16T17:04:05.278Z,7.60
2018-10-16T17:06:34.653Z,7.87
2018-10-16T17:09:04.868Z,7.17
2018-10-16T17:11:34.306Z,6.85
2018-10-16T17:14:03.976Z,7.05
2018-10-16T17:16:33.409Z,7.67
2018-10-16T17:19:03.217Z,7.25
2018-10-16T17:21:32.834Z,7.97
2018-10-16T17:24:02.920Z,7.95
2018-10-16T17:26:32.592Z,7.58
2018-10-16T17:29:02.141Z,7.53
2018-10-16T17:31:31.526Z,7.62
2018-10-16T17:34:01.009Z,7.80
2018-10-16T17:36:30.340Z,8.00
2018-10-16T17:39:00.511Z,7.55
2018-10-16T17:41:30.047Z,7.58
2018-10-16T17:43:59.431Z,8.10
2018-10-16T17:46:29.128Z,7.80
2018-10-16T17:48:58.566Z,8.68
2018-10-16T17:51:28.096Z,8.30
2018-10-16T17:53:57.478Z,9.15
2018-10-16T17:56:26.909Z,8.25
2018-10-16T17:58:56.389Z,8.45
2018-10-16T18:01:25.940Z,8.63
2018-10-16T18:03:55.401Z,9.05
2018-10-16T18:06:24.942Z,8.40
2018-10-16T18:08:54.385Z,8.70
2018-10-16T18:11:23.932Z,9.88
2018-10-16T18:13:53.983Z,9.55
2018-10-16T18:16:23.444Z,9.13
2018-10-16T18:18:53.348Z,9.53
2018-10-16T18:21:23.493Z,9.58
2018-10-16T18:23:53.015Z,9.80
2018-10-16T18:26:23.399Z,10.35
2018-10-16T18:28:53.057Z,9.38
2018-10-16T18:31:22.504Z,9.68
2018-10-16T18:33:52.582Z,9.23
2018-10-16T18:36:22.157Z,10.08
2018-10-16T18:38:51.735Z,9.35
2018-10-16T18:41:21.274Z,9.65
2018-10-16T18:43:50.921Z,9.50
2018-10-16T18:46:20.571Z,9.68
2018-10-16T18:48:50.032Z,9.73
2018-10-16T18:51:19.923Z,9.25
2018-10-16T18:53:50.369Z,9.75
2018-10-16T18:56:20.179Z,9.00
2018-10-16T18:58:49.693Z,10.00
2018-10-16T19:01:19.346Z,9.58
2018-10-16T19:03:48.813Z,10.20
2018-10-16T19:06:18.345Z,9.95
2018-10-16T19:08:49.170Z,10.45
2018-10-16T19:11:18.662Z,10.30
2018-10-16T19:13:49.136Z,9.58
2018-10-16T19:16:18.979Z,9.30
2018-10-16T19:18:48.455Z,9.40
2018-10-16T19:21:18.043Z,8.98
2018-10-16T19:23:47.636Z,9.63
2018-10-16T19:26:17.476Z,10.18
2018-10-16T19:28:47.080Z,10.18
2018-10-16T19:31:16.744Z,9.43
2018-10-16T19:33:46.225Z,9.35
2018-10-16T19:36:15.848Z,10.05
2018-10-16T19:38:45.581Z,10.45
2018-10-16T19:41:15.107Z,9.38
2018-10-16T19:43:44.596Z,9.63
2018-10-16T19:46:14.148Z,10.10
2018-10-16T19:48:43.694Z,9.58
2018-10-16T19:51:13.265Z,10.45
2018-10-16T19:53:42.824Z,10.30
2018-10-16T19:56:12.276Z,9.18
2018-10-16T19:58:41.639Z,9.40
2018-10-16T20:01:11.030Z,9.08
2018-10-16T20:03:40.357Z,9.80
2018-10-16T20:06:09.771Z,9.70
2018-10-16T20:08:39.190Z,10.25
2018-10-16T20:11:09.591Z,10.32
2018-10-16T20:13:39.037Z,9.83
2018-10-16T20:16:08.460Z,10.48
2018-10-16T20:18:38.030Z,8.80
2018-10-16T20:21:07.525Z,9.90
2018-10-16T20:23:37.091Z,10.25
2018-10-16T20:26:06.925Z,9.48
2018-10-16T20:28:36.322Z,9.98
2018-10-16T20:31:06.949Z,9.90
2018-10-16T20:33:36.425Z,10.00
2018-10-16T20:36:06.079Z,8.73
2018-10-16T20:38:35.473Z,9.78
2018-10-16T20:41:04.955Z,9.63
2018-10-16T20:43:34.943Z,10.03
2018-10-16T20:46:04.893Z,9.88
2018-10-16T20:48:34.277Z,8.70
2018-10-16T20:51:03.907Z,9.60
2018-10-16T20:53:33.903Z,9.43
2018-10-16T20:56:03.283Z,9.20
2018-10-16T20:58:32.724Z,9.68
2018-10-16T21:01:02.664Z,10.05
2018-10-16T21:03:32.140Z,9.18
2018-10-16T21:06:01.851Z,8.35
2018-10-16T21:08:31.701Z,9.88
2018-10-16T21:11:01.157Z,8.93
2018-10-16T21:13:30.609Z,9.40
2018-10-16T21:16:00.393Z,9.53
2018-10-16T21:18:30.025Z,9.15
2018-10-16T21:20:59.541Z,9.68
2018-10-16T21:23:29.040Z,10.05
2018-10-16T21:25:58.404Z,9.33
2018-10-16T21:28:28.112Z,9.63
2018-10-16T21:30:57.591Z,9.73
2018-10-16T21:33:27.052Z,9.65
2018-10-16T21:35:56.564Z,9.83
2018-10-16T21:38:26.233Z,9.68
2018-10-16T21:40:56.633Z,9.88
2018-10-16T21:43:26.551Z,9.80
2018-10-16T21:45:55.918Z,9.95
2018-10-16T21:48:25.883Z,10.20
2018-10-16T21:50:55.351Z,10.08
2018-10-16T21:53:24.812Z,9.70
2018-10-16T21:55:54.245Z,10.58
2018-10-16T21:58:24.207Z,9.73
2018-10-16T22:00:59.047Z,9.90
2018-10-16T22:03:28.529Z,9.90
2018-10-16T22:05:57.981Z,10.15
2018-10-16T22:08:27.463Z,10.05
2018-10-16T22:10:57.000Z,10.13
2018-10-16T22:13:26.461Z,10.28
2018-10-16T22:15:55.904Z,10.38
2018-10-16T22:18:25.360Z,9.75
2018-10-16T22:20:55.762Z,10.15
2018-10-16T22:23:25.252Z,9.63
2018-10-16T22:25:54.582Z,8.78
2018-10-16T22:28:23.980Z,10.05
2018-10-16T22:30:53.474Z,10.20
2018-10-16T22:33:23.822Z,9.80
2018-10-16T22:35:53.297Z,9.70
2018-10-16T22:38:22.800Z,9.93
2018-10-16T22:40:52.337Z,9.50
2018-10-16T22:43:21.822Z,9.55
2018-10-16T22:45:51.304Z,10.15
2018-10-16T22:48:20.860Z,10.03
2018-10-16T22:50:51.257Z,10.55
2018-10-16T22:53:20.665Z,9.78
2018-10-16T22:55:49.992Z,9.25
2018-10-16T22:58:19.471Z,10.10
2018-10-16T23:00:48.829Z,9.70
2018-10-16T23:03:18.293Z,9.58
2018-10-16T23:05:47.782Z,10.53
2018-10-16T23:08:17.294Z,10.13
2018-10-16T23:10:46.781Z,9.75
2018-10-16T23:13:16.162Z,10.82
2018-10-16T23:15:45.645Z,10.23
2018-10-16T23:18:14.989Z,9.58
2018-10-16T23:20:44.575Z,9.55
2018-10-16T23:23:13.933Z,9.68
2018-10-16T23:25:43.214Z,10.50
2018-10-16T23:28:12.538Z,9.75
2018-10-16T23:30:41.922Z,11.00
2018-10-16T23:33:11.473Z,10.38
2018-10-16T23:35:40.837Z,10.00
2018-10-16T23:38:10.166Z,9.75
2018-10-16T23:40:39.675Z,10.40
2018-10-16T23:43:09.111Z,10.85
2018-10-16T23:45:38.758Z,9.98
2018-10-16T23:48:08.644Z,10.82
2018-10-16T23:50:38.172Z,9.80
2018-10-16T23:53:07.636Z,9.53
2018-10-16T23:55:37.649Z,9.85
2018-10-16T23:58:08.004Z,9.63
